createdAt,value
2022-12-08T00:01:15.932Z,7.28
2022-12-08T00:03:42.955Z,4.82
2022-12-08T00:06:44.817Z,7.55
2022-12-08T00:09:22.135Z,4.38
2022-12-08T00:12:10.729Z,9.23
2022-12-08T00:14:47.577Z,16.17
2022-12-08T00:17:16.206Z,9.80
2022-12-08T00:19:43.931Z,7.20
2022-12-08T00:22:12.107Z,7.10
2022-12-08T00:24:40.265Z,9.07
2022-12-08T00:27:08.339Z,5.40
2022-12-08T00:29:34.939Z,9.13
2022-12-08T00:32:01.659Z,4.70
2022-12-08T00:34:28.310Z,9.40
2022-12-08T00:36:55.015Z,6.78
2022-12-08T00:39:22.223Z,6.68
2022-12-08T00:42:07.337Z,6.22
2022-12-08T00:44:33.984Z,5.10
2022-12-08T00:47:00.657Z,6.82
2022-12-08T00:49:27.273Z,5.88
2022-12-08T00:51:53.957Z,4.47
2022-12-08T00:54:21.217Z,5.10
2022-12-08T00:56:47.883Z,4.72
2022-12-08T00:59:15.020Z,4.80
2022-12-08T01:01:44.719Z,8.98
2022-12-08T01:04:15.463Z,5.03
2022-12-08T01:06:43.154Z,5.47
2022-12-08T01:09:10.354Z,5.78
2022-12-08T01:11:37.356Z,5.32
2022-12-08T01:14:04.296Z,7.95
2022-12-08T01:16:33.965Z,7.28
2022-12-08T01:19:00.775Z,3.85
2022-12-08T01:21:27.915Z,3.45
2022-12-08T01:23:55.480Z,5.63
2022-12-08T01:26:22.279Z,2.28
2022-12-08T01:28:49.173Z,3.35
2022-12-08T01:31:20.694Z,4.70
2022-12-08T01:33:48.821Z,4.20
2022-12-08T01:36:23.733Z,2.38
2022-12-08T01:38:51.285Z,3.83
2022-12-08T01:41:20.562Z,2.83
2022-12-08T01:44:10.523Z,3.08
2022-12-08T01:46:45.562Z,1.92
2022-12-08T01:49:20.729Z,4.55
2022-12-08T01:52:11.737Z,2.25
2022-12-08T01:54:53.393Z,3.08
2022-12-08T01:57:35.075Z,3.83
2022-12-08T02:00:08.698Z,4.57
2022-12-08T02:02:59.416Z,3.03
2022-12-08T02:05:30.048Z,3.15
2022-12-08T02:07:58.513Z,5.43
2022-12-08T02:10:29.940Z,3.67
2022-12-08T02:12:58.769Z,4.18
2022-12-08T02:15:50.604Z,2.95
2022-12-08T02:18:39.646Z,5.43
2022-12-08T02:21:18.236Z,3.20
2022-12-08T02:24:01.519Z,3.97
2022-12-08T02:26:52.963Z,5.30
2022-12-08T02:29:53.712Z,5.90
2022-12-08T02:32:48.944Z,6.68
2022-12-08T02:35:41.913Z,6.03
2022-12-08T02:38:26.750Z,6.22
2022-12-08T02:41:18.817Z,4.55
2022-12-08T02:43:56.495Z,5.50
2022-12-08T02:46:35.816Z,4.43
2022-12-08T02:49:03.529Z,7.43
2022-12-08T02:51:30.137Z,7.57
2022-12-08T02:53:57.589Z,6.20
2022-12-08T02:56:39.498Z,5.22
2022-12-08T02:59:25.904Z,6.63
2022-12-08T03:02:17.913Z,8.90
2022-12-08T03:05:06.181Z,4.85
2022-12-08T03:07:44.060Z,9.10
2022-12-08T03:10:16.090Z,6.30
2022-12-08T03:15:12.698Z,6.03
2022-12-08T03:17:43.286Z,6.80
2022-12-08T03:20:13.236Z,4.65
2022-12-08T03:22:42.950Z,5.68
2022-12-08T03:25:13.045Z,6.05
2022-12-08T03:27:39.656Z,8.15
2022-12-08T03:30:07.508Z,4.93
2022-12-08T03:32:40.582Z,6.45
2022-12-08T03:35:12.908Z,5.43
2022-12-08T03:37:40.954Z,5.47
2022-12-08T03:40:11.082Z,6.30
2022-12-08T03:42:37.754Z,4.55
2022-12-08T03:45:05.334Z,4.45
2022-12-08T03:47:32.083Z,6.60
2022-12-08T03:49:58.701Z,3.95
2022-12-08T03:52:25.324Z,2.85
2022-12-08T03:54:51.958Z,1.40
2022-12-08T03:57:18.634Z,1.17
2022-12-08T03:59:45.257Z,3.55
2022-12-08T04:02:11.954Z,2.03
2022-12-08T04:04:38.646Z,3.50
2022-12-08T04:07:05.260Z,2.80
2022-12-08T04:09:31.909Z,2.70
2022-12-08T04:11:58.566Z,3.20
2022-12-08T04:14:25.242Z,2.33
2022-12-08T04:16:51.884Z,0.52
2022-12-08T04:19:18.489Z,2.95
2022-12-08T04:21:45.105Z,1.38
2022-12-08T04:24:11.802Z,1.83
2022-12-08T04:26:38.446Z,3.60
2022-12-08T04:29:05.118Z,0.52
2022-12-08T04:31:31.906Z,2.28
2022-12-08T04:33:58.603Z,1.98
2022-12-08T04:36:25.383Z,2.20
2022-12-08T04:38:51.994Z,1.88
2022-12-08T04:41:18.560Z,3.60
2022-12-08T04:43:45.218Z,6.35
2022-12-08T04:46:11.923Z,2.00
2022-12-08T04:48:39.658Z,5.32
2022-12-08T04:51:06.990Z,4.03
2022-12-08T04:53:33.667Z,2.13
2022-12-08T04:56:00.239Z,6.20
2022-12-08T04:58:26.874Z,2.63
2022-12-08T05:00:53.572Z,3.90
2022-12-08T05:03:25.287Z,2.28
2022-12-08T05:05:55.111Z,1.85
2022-12-08T05:08:21.809Z,2.25
2022-12-08T05:10:48.466Z,3.90
2022-12-08T05:13:15.029Z,2.72
2022-12-08T05:15:41.636Z,3.25
2022-12-08T05:18:08.261Z,5.55
2022-12-08T05:20:35.626Z,3.97
2022-12-08T05:23:02.372Z,2.15
2022-12-08T05:25:29.190Z,3.10
2022-12-08T05:28:17.613Z,7.25
2022-12-08T05:30:42.499Z,4.28
2022-12-08T05:33:09.118Z,3.17
2022-12-08T05:35:35.699Z,2.72
2022-12-08T05:38:02.451Z,4.88
2022-12-08T05:40:29.140Z,1.48
2022-12-08T05:42:55.751Z,4.32
2022-12-08T05:45:22.408Z,1.88
2022-12-08T05:47:49.046Z,3.03
2022-12-08T05:50:15.739Z,0.63
2022-12-08T05:52:42.407Z,2.20
2022-12-08T05:55:09.454Z,1.27
2022-12-08T05:57:36.040Z,1.65
2022-12-08T06:00:03.594Z,0.68
2022-12-08T06:02:30.735Z,0.50
2022-12-08T06:04:57.436Z,2.80
2022-12-08T06:07:24.011Z,1.65
2022-12-08T06:09:50.654Z,0.50
2022-12-08T06:12:17.406Z,2.25
2022-12-08T06:14:44.096Z,3.00
2022-12-08T06:17:10.746Z,1.90
2022-12-08T06:19:37.370Z,3.50
2022-12-08T06:22:03.994Z,2.58
2022-12-08T06:24:30.594Z,1.50
2022-12-08T06:26:57.293Z,1.65
2022-12-08T06:29:23.933Z,2.38
2022-12-08T06:31:52.223Z,1.48
2022-12-08T06:34:18.991Z,1.63
2022-12-08T06:36:45.574Z,1.67
2022-12-08T06:39:12.266Z,1.75
2022-12-08T06:41:58.910Z,2.45
2022-12-08T06:44:25.585Z,6.07
2022-12-08T06:46:52.158Z,1.55
2022-12-08T06:49:18.797Z,2.85
2022-12-08T06:51:45.401Z,0.98
2022-12-08T06:54:12.477Z,1.80
2022-12-08T06:56:39.162Z,3.28
2022-12-08T06:59:05.826Z,2.55
2022-12-08T07:01:32.571Z,2.05
2022-12-08T07:03:59.277Z,3.20
2022-12-08T07:06:25.878Z,2.08
2022-12-08T07:08:52.617Z,1.40
2022-12-08T07:11:21.915Z,3.40
2022-12-08T07:13:49.511Z,1.70
2022-12-08T07:16:16.313Z,2.63
2022-12-08T07:18:43.899Z,3.10
2022-12-08T07:21:13.063Z,3.75
2022-12-08T07:23:39.766Z,4.00
2022-12-08T07:26:08.492Z,5.20
2022-12-08T07:28:37.302Z,2.03
2022-12-08T07:31:04.851Z,2.55
2022-12-08T07:33:32.881Z,2.70
2022-12-08T07:36:01.839Z,1.67
2022-12-08T07:38:29.250Z,3.17
2022-12-08T07:40:55.969Z,2.15
2022-12-08T07:43:23.338Z,1.40
2022-12-08T07:45:50.879Z,3.42
2022-12-08T07:48:18.003Z,2.75
2022-12-08T07:50:45.419Z,2.90
2022-12-08T07:53:12.173Z,3.60
2022-12-08T07:55:43.190Z,3.70
2022-12-08T07:58:10.724Z,0.95
2022-12-08T08:00:37.761Z,1.25
2022-12-08T08:03:04.543Z,2.33
2022-12-08T08:05:31.309Z,1.40
2022-12-08T08:07:58.007Z,2.63
2022-12-08T08:10:24.723Z,0.93
2022-12-08T08:12:51.334Z,1.17
2022-12-08T08:15:19.178Z,1.33
2022-12-08T08:17:51.802Z,2.35
2022-12-08T08:20:19.691Z,1.33
2022-12-08T08:22:50.540Z,0.82
2022-12-08T08:25:19.009Z,0.95
2022-12-08T08:27:46.516Z,1.77
2022-12-08T08:30:19.738Z,1.90
2022-12-08T08:32:47.834Z,1.02
2022-12-08T08:35:14.400Z,2.22
2022-12-08T08:37:44.365Z,1.33
2022-12-08T08:40:15.207Z,4.57
2022-12-08T08:42:41.851Z,1.15
2022-12-08T08:45:08.823Z,0.80
2022-12-08T08:47:35.595Z,1.42
2022-12-08T08:50:02.583Z,2.85
2022-12-08T08:52:30.092Z,1.25
2022-12-08T08:54:56.742Z,1.83
2022-12-08T08:57:25.795Z,1.70
2022-12-08T08:59:53.233Z,2.53
2022-12-08T09:02:20.449Z,0.93
2022-12-08T09:04:47.412Z,1.35
2022-12-08T09:07:14.972Z,2.50
2022-12-08T09:09:41.760Z,1.33
2022-12-08T09:12:09.033Z,1.20
2022-12-08T09:14:35.952Z,1.52
2022-12-08T09:17:02.732Z,3.63
2022-12-08T09:19:29.342Z,2.70
2022-12-08T09:21:55.995Z,3.08
2022-12-08T09:24:23.105Z,1.95
2022-12-08T09:26:49.913Z,3.42
2022-12-08T09:29:17.806Z,1.45
2022-12-08T09:31:44.824Z,2.05
2022-12-08T09:34:12.749Z,1.65
2022-12-08T09:36:39.636Z,2.42
2022-12-08T09:39:06.348Z,1.88
2022-12-08T09:41:40.313Z,1.50
2022-12-08T09:44:38.855Z,2.38
2022-12-08T09:47:19.101Z,3.45
2022-12-08T09:49:58.825Z,5.20
2022-12-08T09:52:32.111Z,5.68
2022-12-08T09:55:03.006Z,2.85
2022-12-08T09:57:31.876Z,2.90
2022-12-08T10:00:02.983Z,4.90
2022-12-08T10:02:30.606Z,3.80
2022-12-08T10:04:58.801Z,1.95
2022-12-08T10:07:37.393Z,1.92
2022-12-08T10:10:29.202Z,3.20
2022-12-08T10:13:25.585Z,2.15
2022-12-08T10:16:23.106Z,1.98
2022-12-08T10:19:05.286Z,2.25
2022-12-08T10:21:33.645Z,3.22
2022-12-08T10:24:09.241Z,3.50
2022-12-08T10:26:35.875Z,1.35
2022-12-08T10:29:03.086Z,2.65
2022-12-08T10:31:31.181Z,1.63
2022-12-08T10:34:13.732Z,1.85
2022-12-08T10:36:49.218Z,2.03
2022-12-08T10:39:33.074Z,1.27
2022-12-08T10:42:14.733Z,0.93
2022-12-08T10:45:10.005Z,2.60
2022-12-08T10:47:42.502Z,2.55
2022-12-08T10:50:27.707Z,1.20
2022-12-08T10:52:59.963Z,1.98
2022-12-08T10:55:29.144Z,1.40
2022-12-08T10:57:56.010Z,3.13
2022-12-08T11:00:27.966Z,1.77
2022-12-08T11:02:59.697Z,1.88
2022-12-08T11:05:31.340Z,1.55
2022-12-08T11:07:58.290Z,2.78
2022-12-08T11:10:43.598Z,2.05
2022-12-08T11:13:21.003Z,4.65
2022-12-08T11:15:47.966Z,2.33
2022-12-08T11:18:29.795Z,2.63
2022-12-08T11:21:05.875Z,2.35
2022-12-08T11:23:36.549Z,1.48
2022-12-08T11:26:18.998Z,2.25
2022-12-08T11:28:45.651Z,1.48
2022-12-08T11:31:30.648Z,3.45
2022-12-08T11:33:57.540Z,3.35
2022-12-08T11:36:27.175Z,4.72
2022-12-08T11:38:57.626Z,2.60
2022-12-08T11:41:38.772Z,2.80
2022-12-08T11:44:20.729Z,2.30
2022-12-08T11:46:59.749Z,2.45
2022-12-08T11:49:36.928Z,4.90
2022-12-08T11:52:33.738Z,3.40
2022-12-08T11:55:17.272Z,4.15
2022-12-08T11:57:45.421Z,2.63
2022-12-08T12:00:15.214Z,3.85
2022-12-08T12:02:49.567Z,2.75
2022-12-08T12:06:18.558Z,4.15
2022-12-08T12:09:06.749Z,5.00
2022-12-08T12:12:14.308Z,3.10
2022-12-08T12:14:59.029Z,2.50
2022-12-08T12:17:42.711Z,2.70
2022-12-08T12:20:34.511Z,3.00
2022-12-08T12:23:18.475Z,5.05
2022-12-08T12:26:00.054Z,2.08
2022-12-08T12:28:49.562Z,2.95
2022-12-08T12:31:19.448Z,4.60
2022-12-08T12:33:47.059Z,3.03
2022-12-08T12:36:14.883Z,2.97
2022-12-08T12:39:06.292Z,2.78
2022-12-08T12:41:52.674Z,4.03
2022-12-08T12:44:19.317Z,2.83
2022-12-08T12:46:48.777Z,5.22
2022-12-08T12:49:40.138Z,2.30
2022-12-08T12:52:16.016Z,3.80
2022-12-08T12:54:44.384Z,2.17
2022-12-08T12:57:10.988Z,2.92
2022-12-08T12:59:55.543Z,3.08
2022-12-08T13:02:44.391Z,3.92
2022-12-08T13:05:33.131Z,4.18
2022-12-08T13:08:16.304Z,2.55
2022-12-08T13:11:05.417Z,1.88
2022-12-08T13:13:32.775Z,2.13
2022-12-08T13:16:07.693Z,2.10
2022-12-08T13:18:57.518Z,3.00
2022-12-08T13:21:31.941Z,4.88
2022-12-08T13:24:12.763Z,2.42
2022-12-08T13:27:11.490Z,2.67
2022-12-08T13:29:39.589Z,2.83
2022-12-08T13:32:09.673Z,4.53
2022-12-08T13:34:49.656Z,3.35
2022-12-08T13:37:28.244Z,3.33
2022-12-08T13:40:14.541Z,2.55
2022-12-08T13:42:49.927Z,2.75
2022-12-08T13:45:52.940Z,3.58
2022-12-08T13:49:03.380Z,2.60
2022-12-08T13:57:15.671Z,2.05
2022-12-08T13:59:45.889Z,1.95
2022-12-08T14:02:40.787Z,4.07
2022-12-08T14:05:26.299Z,2.90
2022-12-08T14:07:56.768Z,4.20
2022-12-08T14:10:27.244Z,2.15
2022-12-08T14:13:06.204Z,3.88
2022-12-08T14:15:38.322Z,3.22
2022-12-08T14:18:06.905Z,3.13
2022-12-08T14:20:57.826Z,3.22
2022-12-08T14:23:22.088Z,2.92
2022-12-08T14:25:48.899Z,3.13
2022-12-08T14:28:16.358Z,4.07
2022-12-08T14:30:43.257Z,3.40
2022-12-08T14:33:15.045Z,4.68
2022-12-08T14:35:42.087Z,2.60
2022-12-08T14:38:35.342Z,4.15
2022-12-08T14:41:05.175Z,4.50
2022-12-08T14:43:32.765Z,3.47
2022-12-08T14:46:02.805Z,3.90
2022-12-08T14:48:38.378Z,2.63
2022-12-08T14:51:16.314Z,8.82
2022-12-08T14:53:46.345Z,4.03
2022-12-08T14:56:26.832Z,5.20
2022-12-08T14:59:23.636Z,3.92
2022-12-08T15:01:53.361Z,4.45
2022-12-08T15:04:28.308Z,6.57
2022-12-08T15:07:18.955Z,4.20
2022-12-08T15:09:50.062Z,4.07
2022-12-08T15:12:26.840Z,5.60
2022-12-08T15:15:13.645Z,4.53
2022-12-08T15:17:40.235Z,3.90
2022-12-08T15:20:31.651Z,4.10
2022-12-08T15:23:02.070Z,4.78
2022-12-08T15:25:28.734Z,4.38
2022-12-08T15:27:57.030Z,8.68
2022-12-08T15:30:26.315Z,4.32
2022-12-08T15:32:54.108Z,4.30
2022-12-08T15:35:21.317Z,6.93
2022-12-08T15:37:48.018Z,4.47
2022-12-08T15:40:17.675Z,3.05
2022-12-08T15:42:44.327Z,6.43
2022-12-08T15:45:15.043Z,6.55
2022-12-08T15:47:42.789Z,4.07
2022-12-08T15:50:18.613Z,7.65
2022-12-08T15:52:45.270Z,8.10
2022-12-08T15:55:13.701Z,9.38
2022-12-08T16:04:27.622Z,4.65
2022-12-08T16:09:36.165Z,5.03
2022-12-08T16:12:21.671Z,6.80
2022-12-08T16:17:36.356Z,7.85
2022-12-08T16:20:05.042Z,9.95
2022-12-08T16:25:21.425Z,7.00
2022-12-08T16:28:29.281Z,5.68
2022-12-08T16:30:38.186Z,6.47
2022-12-08T16:33:05.134Z,7.70
2022-12-08T16:35:31.788Z,11.88
2022-12-08T16:37:58.738Z,8.05
2022-12-08T16:40:25.712Z,7.55
2022-12-08T16:42:52.757Z,7.38
2022-12-08T16:45:24.741Z,6.97
2022-12-08T16:50:26.987Z,11.52
2022-12-08T16:53:12.918Z,8.20
2022-12-08T16:55:39.971Z,8.25
2022-12-08T16:58:07.040Z,7.95
2022-12-08T17:00:36.841Z,7.32
2022-12-08T17:03:05.177Z,6.57
2022-12-08T17:05:32.196Z,7.85
2022-12-08T17:07:59.165Z,7.20
2022-12-08T17:10:29.422Z,9.45
2022-12-08T17:12:56.868Z,8.48
2022-12-08T17:15:25.502Z,11.93
2022-12-08T17:17:52.934Z,14.10
2022-12-08T17:20:23.935Z,12.35
2022-12-08T17:22:53.190Z,8.60
2022-12-08T17:25:19.870Z,8.88
2022-12-08T17:27:46.449Z,7.75
2022-12-08T17:30:15.642Z,8.90
2022-12-08T17:32:43.034Z,8.02
2022-12-08T17:35:10.631Z,9.57
2022-12-08T17:37:37.265Z,8.63
2022-12-08T17:40:05.142Z,8.32
2022-12-08T17:42:32.007Z,8.60
2022-12-08T17:44:58.621Z,9.02
2022-12-08T17:47:25.219Z,9.68
2022-12-08T17:49:52.007Z,11.68
2022-12-08T17:52:18.642Z,10.10
2022-12-08T17:54:45.320Z,12.02
2022-12-08T17:57:12.080Z,12.35
2022-12-08T17:59:38.751Z,11.27
2022-12-08T18:02:05.642Z,12.13
2022-12-08T18:04:32.331Z,10.38
2022-12-08T18:07:01.138Z,8.75
2022-12-08T18:09:30.717Z,9.95
2022-12-08T18:11:57.387Z,10.82
2022-12-08T18:14:24.036Z,10.63
2022-12-08T18:16:50.669Z,12.02
2022-12-08T18:19:17.298Z,10.73
2022-12-08T18:21:44.017Z,10.40
2022-12-08T18:24:21.932Z,12.30
2022-12-08T18:26:48.878Z,10.32
2022-12-08T18:29:15.454Z,10.77
2022-12-08T18:31:42.022Z,7.53
2022-12-08T18:34:08.625Z,9.93
2022-12-08T18:36:35.396Z,9.43
2022-12-08T18:39:05.832Z,12.68
2022-12-08T18:41:35.618Z,8.57
2022-12-08T18:44:02.246Z,33.60
2022-12-08T18:46:28.891Z,41.10
2022-12-08T18:48:55.719Z,29.25
2022-12-08T18:51:23.995Z,26.27
2022-12-08T18:53:51.614Z,27.65
2022-12-08T18:56:29.913Z,20.13
2022-12-08T18:59:02.839Z,29.40
2022-12-08T19:01:31.867Z,45.20
2022-12-08T19:06:50.603Z,15.27
2022-12-08T19:09:17.903Z,14.57
2022-12-08T19:11:44.601Z,14.77
2022-12-08T19:14:11.681Z,20.50
2022-12-08T19:16:38.433Z,20.52
2022-12-08T19:19:05.482Z,19.38
2022-12-08T19:21:32.848Z,28.40
2022-12-08T19:23:59.873Z,23.77
2022-12-08T19:26:28.140Z,17.65
2022-12-08T19:28:55.159Z,18.13
2022-12-08T19:31:22.080Z,19.27
2022-12-08T19:33:48.795Z,17.23
2022-12-08T19:36:18.381Z,17.58
2022-12-08T19:39:17.645Z,23.13
2022-12-08T19:42:03.088Z,21.48
2022-12-08T19:44:48.850Z,19.67
2022-12-08T19:47:15.548Z,20.80
2022-12-08T19:49:42.281Z,20.00
2022-12-08T19:52:09.020Z,18.10
2022-12-08T19:54:36.163Z,17.65
2022-12-08T19:57:02.841Z,16.10
2022-12-08T19:59:30.312Z,15.50
2022-12-08T20:02:00.344Z,16.63
2022-12-08T20:04:27.768Z,16.98
2022-12-08T20:06:55.837Z,15.68
2022-12-08T20:09:23.637Z,17.05
2022-12-08T20:11:50.873Z,17.98
2022-12-08T20:14:21.737Z,17.10
2022-12-08T20:16:48.706Z,18.90
2022-12-08T20:19:15.528Z,34.00
2022-12-08T20:21:42.372Z,35.05
2022-12-08T20:24:09.026Z,35.85
2022-12-08T20:26:35.782Z,30.40
2022-12-08T20:29:02.384Z,26.20
2022-12-08T20:31:31.365Z,20.13
2022-12-08T20:33:58.099Z,20.55
2022-12-08T20:36:25.366Z,25.05
2022-12-08T20:38:53.769Z,23.48
2022-12-08T20:41:23.128Z,33.60
2022-12-08T20:43:50.450Z,33.00
2022-12-08T20:46:18.129Z,34.45
2022-12-08T20:48:45.223Z,26.42
2022-12-08T20:51:16.919Z,28.45
2022-12-08T20:53:44.672Z,27.65
2022-12-08T20:56:20.282Z,27.65
2022-12-08T20:58:47.631Z,33.40
2022-12-08T21:01:17.099Z,52.33
2022-12-08T21:03:44.458Z,39.10
2022-12-08T21:06:11.853Z,27.15
2022-12-08T21:08:39.444Z,50.90
2022-12-08T21:11:07.691Z,40.63
2022-12-08T21:13:36.979Z,52.03
2022-12-08T21:16:04.836Z,79.75
2022-12-08T21:18:38.988Z,47.65
2022-12-08T21:21:12.198Z,34.60
2022-12-08T21:23:39.624Z,28.55
2022-12-08T21:26:21.101Z,23.05
2022-12-08T21:28:47.980Z,26.10
2022-12-08T21:31:17.371Z,26.63
2022-12-08T21:33:44.192Z,26.20
2022-12-08T21:36:13.395Z,26.05
2022-12-08T21:38:40.887Z,27.98
2022-12-08T21:41:16.313Z,29.90
2022-12-08T21:43:43.394Z,23.98
2022-12-08T21:46:17.162Z,24.90
2022-12-08T21:48:43.967Z,22.15
2022-12-08T21:51:10.679Z,27.50
2022-12-08T21:53:37.389Z,29.27
2022-12-08T21:56:09.181Z,30.63
2022-12-08T21:58:35.994Z,29.83
2022-12-08T22:01:10.525Z,29.98
2022-12-08T22:03:39.125Z,32.03
2022-12-08T22:06:11.519Z,36.05
2022-12-08T22:08:38.823Z,32.88
2022-12-08T22:11:06.227Z,46.05
2022-12-08T22:13:37.697Z,31.10
2022-12-08T22:16:07.151Z,32.83
2022-12-08T22:18:34.470Z,32.08
2022-12-08T22:21:01.592Z,34.83
2022-12-08T22:23:28.822Z,33.03
2022-12-08T22:25:57.690Z,27.60
2022-12-08T22:28:25.020Z,37.90
2022-12-08T22:30:51.676Z,35.15
2022-12-08T22:33:18.337Z,32.65
2022-12-08T22:35:54.044Z,34.38
2022-12-08T22:38:20.793Z,35.00
2022-12-08T22:40:47.603Z,41.28
2022-12-08T22:43:14.196Z,35.20
2022-12-08T22:45:40.946Z,36.38
2022-12-08T22:48:07.823Z,38.63
2022-12-08T22:50:34.391Z,30.63
2022-12-08T22:53:00.993Z,49.08
2022-12-08T22:55:27.595Z,41.03
2022-12-08T22:57:54.270Z,42.80
2022-12-08T23:00:20.955Z,41.35
2022-12-08T23:02:47.652Z,38.28
2022-12-08T23:05:14.515Z,39.03
2022-12-08T23:07:41.833Z,65.40
2022-12-08T23:10:10.709Z,44.38
2022-12-08T23:12:37.815Z,43.78
2022-12-08T23:15:05.054Z,48.60
2022-12-08T23:17:31.777Z,46.97
2022-12-08T23:19:58.482Z,51.30
2022-12-08T23:22:25.368Z,39.90
2022-12-08T23:24:51.946Z,41.33
2022-12-08T23:27:18.675Z,44.35
2022-12-08T23:29:45.332Z,44.15
2022-12-08T23:32:12.045Z,44.35
2022-12-08T23:34:39.658Z,47.20
2022-12-08T23:37:06.404Z,40.05
2022-12-08T23:39:33.101Z,42.40
2022-12-08T23:42:00.093Z,41.65
2022-12-08T23:44:26.948Z,38.20
2022-12-08T23:46:53.714Z,36.78
2022-12-08T23:49:21.290Z,39.00
2022-12-08T23:51:47.903Z,37.13
2022-12-08T23:54:14.503Z,38.20
2022-12-08T23:56:41.463Z,40.28
2022-12-08T23:59:08.263Z,37.90
